Time;durP1;ratioP1;P1;durP2;ratioP2;P2;SDS_P1;SDS_P2;PMS_P1;PMS_P2;Temp;Humidity;BMP_temperature;BMP_pressure;BME280_temperature;BME280_humidity;BME280_pressure;Samples;Min_cycle;Max_cycle;Signal;HPM_P1;HPM_P2
2023/05/23 00:02:22;;;;;;;;;;;18.20;66.70;;;;;;20999136;28;19947;-55
2023/05/23 00:12:23;;;;;;;;;;;18.00;65.50;;;;;;20998298;28;19924;-57
2023/05/23 00:22:23;;;;;;;;;;;17.90;65.70;;;;;;20995336;28;19925;-55
2023/05/23 00:32:24;;;;;;;;;;;18.00;64.40;;;;;;20994084;28;19924;-55
2023/05/23 00:42:24;;;;;;;;;;;18.10;61.20;;;;;;20993156;28;19929;-56
2023/05/23 00:52:25;;;;;;;;;;;18.20;61.20;;;;;;20992740;28;19936;-56
2023/05/23 01:02:26;;;;;;;;;;;18.30;57.30;;;;;;20992839;28;20069;-56
2023/05/23 01:12:27;;;;;;;;;;;18.40;54.60;;;;;;20990836;28;19929;-61
2023/05/23 01:22:38;;;;;;;;;;;18.30;54.70;;;;;;20925025;28;1913508;-55
2023/05/23 01:32:39;;;;;;;;;;;18.30;55.10;;;;;;20994003;28;20452;-55
2023/05/23 01:42:39;;;;;;;;;;;18.30;55.60;;;;;;20993004;28;20415;-56
2023/05/23 01:52:40;;;;;;;;;;;18.10;57.80;;;;;;20992599;28;20480;-55
2023/05/23 02:02:41;;;;;;;;;;;17.90;59.70;;;;;;20991838;28;20433;-55
2023/05/23 02:12:42;;;;;;;;;;;17.80;60.00;;;;;;20992834;28;19931;-56
2023/05/23 02:22:42;;;;;;;;;;;17.70;60.80;;;;;;21003144;28;19978;-57
2023/05/23 02:32:43;;;;;;;;;;;17.70;60.80;;;;;;21006550;28;20003;-55
2023/05/23 02:42:43;;;;;;;;;;;17.70;60.70;;;;;;21004611;28;19972;-56
2023/05/23 02:52:44;;;;;;;;;;;17.50;61.00;;;;;;21005365;28;19932;-55
2023/05/23 03:02:45;;;;;;;;;;;17.50;60.80;;;;;;21004745;28;19950;-55
2023/05/23 03:12:46;;;;;;;;;;;17.60;60.30;;;;;;21003443;28;19929;-55
2023/05/23 03:22:47;;;;;;;;;;;17.50;60.40;;;;;;21002040;28;19960;-56
2023/05/23 03:32:48;;;;;;;;;;;17.50;60.20;;;;;;21000772;28;20397;-56
2023/05/23 03:43:00;;;;;;;;;;;17.50;59.90;;;;;;21001018;28;19924;-55
2023/05/23 03:53:00;;;;;;;;;;;17.50;59.80;;;;;;21000276;28;20376;-56
2023/05/23 04:03:01;;;;;;;;;;;17.40;60.40;;;;;;20999018;28;19992;-56
2023/05/23 04:13:02;;;;;;;;;;;17.40;63.00;;;;;;20997581;28;19925;-55
2023/05/23 04:23:02;;;;;;;;;;;17.20;64.10;;;;;;20997807;28;19975;-56
2023/05/23 04:33:03;;;;;;;;;;;17.00;63.90;;;;;;20998437;28;19932;-58
2023/05/23 04:43:04;;;;;;;;;;;17.00;62.90;;;;;;20997746;28;19940;-55
2023/05/23 04:53:04;;;;;;;;;;;16.90;62.80;;;;;;20996251;28;19924;-56
2023/05/23 05:03:05;;;;;;;;;;;16.90;62.70;;;;;;20995804;28;20030;-55
2023/05/23 05:13:06;;;;;;;;;;;17.00;61.70;;;;;;20995444;28;20107;-54
2023/05/23 05:23:08;;;;;;;;;;;17.00;61.30;;;;;;20995989;28;20023;-55
2023/05/23 05:33:09;;;;;;;;;;;17.10;60.60;;;;;;20993778;28;19980;-56
2023/05/23 05:43:09;;;;;;;;;;;17.10;61.00;;;;;;20993804;28;20427;-55
2023/05/23 05:53:11;;;;;;;;;;;17.10;60.70;;;;;;20998125;28;19931;-56
2023/05/23 06:03:12;;;;;;;;;;;17.20;60.50;;;;;;21008302;28;20019;-56
2023/05/23 06:13:13;;;;;;;;;;;17.20;61.10;;;;;;21009343;28;19924;-55
2023/05/23 06:23:14;;;;;;;;;;;17.20;60.80;;;;;;21005391;28;19976;-55
2023/05/23 06:33:15;;;;;;;;;;;17.40;60.30;;;;;;21005446;28;20439;-56
2023/05/23 06:43:15;;;;;;;;;;;17.50;59.80;;;;;;21005197;28;19967;-54
2023/05/23 06:53:17;;;;;;;;;;;17.60;59.60;;;;;;21005011;28;20266;-55
2023/05/23 07:03:18;;;;;;;;;;;17.70;59.70;;;;;;21003022;28;19931;-57
2023/05/23 07:13:18;;;;;;;;;;;17.80;59.30;;;;;;21003742;28;19968;-56
2023/05/23 07:23:19;;;;;;;;;;;17.90;59.70;;;;;;21003246;28;19931;-55
2023/05/23 07:33:19;;;;;;;;;;;18.00;59.30;;;;;;21003013;28;19967;-56
2023/05/23 07:43:20;;;;;;;;;;;18.20;58.30;;;;;;21002280;28;19967;-56
2023/05/23 07:53:21;;;;;;;;;;;18.20;57.50;;;;;;20999694;28;19928;-55
2023/05/23 08:03:22;;;;;;;;;;;18.30;57.60;;;;;;21000654;28;20369;-55
2023/05/23 08:13:22;;;;;;;;;;;18.50;56.90;;;;;;20997727;28;19931;-55
2023/05/23 08:23:23;;;;;;;;;;;18.70;55.70;;;;;;20997858;28;19978;-55
2023/05/23 08:33:24;;;;;;;;;;;19.00;55.70;;;;;;20998325;28;19924;-56
2023/05/23 08:43:24;;;;;;;;;;;19.20;55.00;;;;;;20997649;28;19924;-56
2023/05/23 08:53:26;;;;;;;;;;;19.20;55.30;;;;;;21048437;28;19924;-57
2023/05/23 09:03:26;;;;;;;;;;;19.70;52.70;;;;;;21065879;28;20413;-56
2023/05/23 09:13:31;;;;;;;;;;;20.40;51.80;;;;;;21077754;28;19979;-56
2023/05/23 09:23:32;;;;;;;;;;;20.90;49.80;;;;;;21076661;28;19924;-59
2023/05/23 09:33:45;;;;;;;;;;;21.10;49.30;;;;;;21091701;28;20417;-55
2023/05/23 09:43:50;;;;;;;;;;;21.30;47.20;;;;;;21094621;28;20000;-56
2023/05/23 09:53:52;;;;;;;;;;;21.50;45.70;;;;;;21093191;28;19928;-57
2023/05/23 10:03:56;;;;;;;;;;;21.90;44.20;;;;;;21092667;28;19924;-58
2023/05/23 10:13:58;;;;;;;;;;;21.80;44.90;;;;;;21084510;28;19924;-56
2023/05/23 10:23:59;;;;;;;;;;;21.70;44.10;;;;;;21091301;28;20373;-58
2023/05/23 10:34:19;;;;;;;;;;;22.00;42.60;;;;;;21091541;28;19924;-57
2023/05/23 10:44:25;;;;;;;;;;;21.90;42.70;;;;;;21090006;28;19924;-57
2023/05/23 10:54:33;;;;;;;;;;;22.40;41.80;;;;;;21085722;28;20451;-59
2023/05/23 11:04:33;;;;;;;;;;;22.60;40.30;;;;;;21087761;28;19924;-63
2023/05/23 11:14:37;;;;;;;;;;;22.70;40.80;;;;;;21086599;28;20356;-57
2023/05/23 11:24:47;;;;;;;;;;;22.50;40.30;;;;;;21086155;28;19976;-56
2023/05/23 11:34:48;;;;;;;;;;;22.70;39.80;;;;;;21086605;28;20384;-56
2023/05/23 11:44:52;;;;;;;;;;;22.80;38.20;;;;;;21084120;28;19946;-57
2023/05/23 11:54:53;;;;;;;;;;;23.10;37.70;;;;;;21083076;28;20007;-56
2023/05/23 12:04:53;;;;;;;;;;;23.20;36.90;;;;;;21083134;28;20409;-56
2023/05/23 12:14:57;;;;;;;;;;;23.50;36.10;;;;;;21082566;28;20027;-57
2023/05/23 12:24:58;;;;;;;;;;;23.70;35.50;;;;;;21081720;28;20003;-58
2023/05/23 12:34:58;;;;;;;;;;;23.80;35.50;;;;;;21081613;28;20085;-57
2023/05/23 12:44:59;;;;;;;;;;;23.70;35.50;;;;;;21079837;28;19982;-57
2023/05/23 12:55:00;;;;;;;;;;;23.90;35.90;;;;;;21080127;28;19924;-59
2023/05/23 13:05:00;;;;;;;;;;;23.80;35.00;;;;;;21079839;28;20392;-59
2023/05/23 13:15:01;;;;;;;;;;;24.10;34.10;;;;;;21078441;28;19959;-57
2023/05/23 13:25:02;;;;;;;;;;;24.50;33.60;;;;;;21078821;28;20377;-60
2023/05/23 13:35:02;;;;;;;;;;;24.20;34.10;;;;;;21079471;28;20045;-58
2023/05/23 13:45:03;;;;;;;;;;;24.20;33.00;;;;;;21079125;28;19928;-57
2023/05/23 13:55:05;;;;;;;;;;;24.60;32.90;;;;;;21078330;28;19928;-58
2023/05/23 14:05:06;;;;;;;;;;;24.80;32.50;;;;;;21076526;28;20023;-58
2023/05/23 14:15:07;;;;;;;;;;;24.90;32.00;;;;;;21081920;28;20373;-58
2023/05/23 14:25:08;;;;;;;;;;;24.70;31.60;;;;;;21091420;28;19924;-59
2023/05/23 14:35:10;;;;;;;;;;;24.90;31.40;;;;;;21090822;28;19947;-57
2023/05/23 14:45:11;;;;;;;;;;;24.70;31.30;;;;;;21088925;28;20381;-57
2023/05/23 14:55:11;;;;;;;;;;;24.50;35.50;;;;;;21089649;28;19985;-58
2023/05/23 15:05:13;;;;;;;;;;;23.70;39.30;;;;;;21088763;28;19924;-57
2023/05/23 15:15:15;;;;;;;;;;;22.90;51.50;;;;;;21087403;28;19940;-58
2023/05/23 15:25:16;;;;;;;;;;;22.10;54.40;;;;;;21084464;28;19932;-60
2023/05/23 15:35:16;;;;;;;;;;;21.40;55.80;;;;;;21086523;28;19932;-57
2023/05/23 15:45:17;;;;;;;;;;;21.10;57.70;;;;;;21085900;28;19928;-55
2023/05/23 15:55:18;;;;;;;;;;;21.40;57.80;;;;;;21082724;28;20391;-58
2023/05/23 16:05:18;;;;;;;;;;;21.30;60.60;;;;;;21083265;28;19924;-59
2023/05/23 16:15:19;;;;;;;;;;;21.40;62.00;;;;;;21082377;28;20258;-57
2023/05/23 16:25:20;;;;;;;;;;;21.60;62.50;;;;;;21082921;28;19924;-59
2023/05/23 16:35:20;;;;;;;;;;;21.60;62.20;;;;;;21081563;28;19935;-60
2023/05/23 16:45:21;;;;;;;;;;;21.70;61.60;;;;;;21081242;28;19924;-61
2023/05/23 16:55:23;;;;;;;;;;;21.80;60.90;;;;;;21080358;28;19924;-57
2023/05/23 17:05:24;;;;;;;;;;;21.80;58.60;;;;;;21080073;28;19935;-60
2023/05/23 17:15:25;;;;;;;;;;;21.90;57.40;;;;;;21071087;28;19931;-60
2023/05/23 17:25:25;;;;;;;;;;;21.80;58.70;;;;;;21077518;28;19924;-58
2023/05/23 17:35:26;;;;;;;;;;;20.70;58.90;;;;;;21078650;28;19925;-57
2023/05/23 17:45:27;;;;;;;;;;;20.10;62.50;;;;;;21078364;28;19969;-58
2023/05/23 17:55:27;;;;;;;;;;;19.80;64.60;;;;;;21091974;28;19931;-57
2023/05/23 18:05:28;;;;;;;;;;;19.50;65.30;;;;;;21092491;28;19993;-57
2023/05/23 18:15:28;;;;;;;;;;;19.40;65.40;;;;;;21092019;28;19924;-57
2023/05/23 18:25:29;;;;;;;;;;;19.30;64.70;;;;;;21091005;28;20238;-58
2023/05/23 18:35:30;;;;;;;;;;;19.30;65.60;;;;;;21089687;28;19930;-58
2023/05/23 18:45:30;;;;;;;;;;;19.30;64.70;;;;;;21090123;28;20395;-60
2023/05/23 18:55:31;;;;;;;;;;;19.30;65.30;;;;;;21089432;28;19924;-56
2023/05/23 19:05:31;;;;;;;;;;;19.00;65.60;;;;;;21088236;28;20396;-57
2023/05/23 19:15:32;;;;;;;;;;;18.70;68.30;;;;;;21087812;28;19925;-57
2023/05/23 19:25:33;;;;;;;;;;;18.50;69.80;;;;;;21085316;28;19924;-57
2023/05/23 19:35:33;;;;;;;;;;;18.30;69.40;;;;;;21085119;28;19924;-57
2023/05/23 19:45:35;;;;;;;;;;;18.30;70.60;;;;;;21084263;28;19924;-56
2023/05/23 19:55:36;;;;;;;;;;;18.10;70.20;;;;;;21083083;28;20364;-57
2023/05/23 20:05:37;;;;;;;;;;;18.10;69.30;;;;;;21082982;28;19929;-59
2023/05/23 20:15:37;;;;;;;;;;;17.70;72.00;;;;;;21081180;28;19994;-58
2023/05/23 20:25:38;;;;;;;;;;;17.70;71.90;;;;;;21080048;28;19924;-56
2023/05/23 20:35:39;;;;;;;;;;;17.60;72.30;;;;;;21080609;28;19928;-58
2023/05/23 20:45:40;;;;;;;;;;;17.70;71.80;;;;;;21078455;28;19935;-60
2023/05/23 20:55:41;;;;;;;;;;;17.50;73.50;;;;;;21078693;28;20363;-59
2023/05/23 21:05:41;;;;;;;;;;;17.40;72.50;;;;;;21077929;28;19950;-57
2023/05/23 21:15:42;;;;;;;;;;;17.30;71.80;;;;;;21077800;28;19924;-59
2023/05/23 21:25:43;;;;;;;;;;;17.20;72.10;;;;;;21085892;28;19930;-59
2023/05/23 21:35:44;;;;;;;;;;;17.20;72.80;;;;;;21094289;28;19931;-58
2023/05/23 21:45:44;;;;;;;;;;;17.30;70.40;;;;;;21093095;28;20334;-57
2023/05/23 21:55:45;;;;;;;;;;;17.20;71.40;;;;;;21092849;28;19970;-57
2023/05/23 22:05:46;;;;;;;;;;;17.10;70.90;;;;;;21092756;28;19924;-56
2023/05/23 22:15:46;;;;;;;;;;;17.20;70.60;;;;;;21090174;28;20309;-56
2023/05/23 22:25:47;;;;;;;;;;;17.20;70.20;;;;;;21090257;28;19954;-56
2023/05/23 22:35:48;;;;;;;;;;;17.20;70.50;;;;;;21089107;28;19924;-56
2023/05/23 22:45:49;;;;;;;;;;;17.20;69.20;;;;;;21089783;28;19930;-56
2023/05/23 22:55:49;;;;;;;;;;;17.20;68.30;;;;;;21088251;28;19998;-57
2023/05/23 23:05:50;;;;;;;;;;;17.10;68.70;;;;;;21088789;28;19977;-57
2023/05/23 23:15:51;;;;;;;;;;;17.10;68.40;;;;;;21087697;28;19924;-55
2023/05/23 23:25:51;;;;;;;;;;;17.10;68.40;;;;;;21085742;28;20006;-56
2023/05/23 23:35:52;;;;;;;;;;;17.00;68.50;;;;;;21086149;28;19924;-56
2023/05/23 23:45:53;;;;;;;;;;;16.90;69.20;;;;;;21083060;28;20015;-57
2023/05/23 23:55:53;;;;;;;;;;;16.80;69.90;;;;;;21083418;28;19928;-56
